Terminal Aerodrome Forecast
Issued by NWS

Home | Current Version | Previous Version | Text Only | Print | Product List | Glossary On
Versions: 1 2 3 4 5 6 7 8 9 10 11 12 13 14 15 16 17 18 19 20 21 22 23 24 25 26
000
FTUS41 KOKX 291154
TAFGON
TAF
KGON 291154Z 2912/3012 07012KT P6SM BKN015 OVC060
     FM291600 09010KT 5SM -RA BR BKN015 OVC040
     FM292200 06007KT 5SM BR OVC015
     FM300200 04005KT 5SM BR OVC015=

USA.gov is the U.S. government's official web portal to all federal, state and local government web resources and services.